New Plymouth, Idaho
Current Conditions -  °F | °C
As of 11:53 AM on Saturday 25 Oct 2014 (Local Time) from KONO Reporting Station
Haze Haze  
Wind Chill:   Ceiling: 300
Heat Index:   Visibility: 5mi
Dew Point:   Wind: 0mph
Humidity: 96%   Direction: NA
Pressure: 29.84"   Gusts: NA
Location:  43.97°N, 116.82°W
Report Text: KONO 251753Z AUTO 00000KT 5SM BR OVC003 08/07 A2984 RMK AO2 SLP110 T00780072 10078 20050 58008
Loading
Personal Weather Stations






























Interactive Weather Map
Tropical Storm Tracking
New forecast layout! Learn more

10-Day Weather Forecast

Advertisements
Track Severe Weather on mobile